Time;durP1;ratioP1;P1;durP2;ratioP2;P2;SDS_P1;SDS_P2;PMS_P1;PMS_P2;Temp;Humidity;BMP_temperature;BMP_pressure;BME280_temperature;BME280_humidity;BME280_pressure;Samples;Min_cycle;Max_cycle;Signal;HPM_P1;HPM_P2
2024/01/11 00:01:59;;;;;;;1999.90;999.90;;;-5.20;99.90;;;;;;4989179;28;20049;-79
2024/01/11 00:04:25;;;;;;;1999.90;999.90;;;-5.10;99.90;;;;;;4984917;28;20034;-80
2024/01/11 00:06:51;;;;;;;1999.90;999.90;;;-5.00;99.90;;;;;;4990433;28;20396;-80
2024/01/11 00:09:17;;;;;;;1999.90;999.90;;;-3.50;99.90;;;;;;4991483;28;20041;-80
2024/01/11 00:11:42;;;;;;;1999.90;999.90;;;-5.00;99.90;;;;;;4990869;28;20045;-79
2024/01/11 00:14:08;;;;;;;1999.90;999.90;;;-5.00;99.90;;;;;;4985209;28;20034;-79
2024/01/11 00:16:34;;;;;;;1999.90;999.90;;;-5.00;99.90;;;;;;4986609;28;20038;-81
2024/01/11 00:19:00;;;;;;;1999.90;999.90;;;-5.00;99.90;;;;;;4989013;28;20035;-80
2024/01/11 00:21:26;;;;;;;1999.90;999.90;;;-5.00;99.90;;;;;;4989448;28;20069;-79
2024/01/11 00:23:51;;;;;;;1999.90;999.90;;;-5.00;99.90;;;;;;4991080;28;20042;-79
2024/01/11 00:26:17;;;;;;;1999.90;999.90;;;-3.30;99.90;;;;;;4990129;28;20042;-79
2024/01/11 00:28:43;;;;;;;1999.90;999.90;;;-5.00;99.90;;;;;;4986156;28;20054;-79
2024/01/11 00:31:08;;;;;;;1999.90;999.90;;;-5.10;99.90;;;;;;4992399;28;20526;-79
2024/01/11 00:33:34;;;;;;;1999.90;999.90;;;-5.10;99.90;;;;;;4990837;28;20042;-80
2024/01/11 00:35:59;;;;;;;1999.90;999.90;;;-5.10;99.90;;;;;;4986830;28;20045;-79
2024/01/11 00:38:27;;;;;;;1999.90;999.90;;;-5.10;99.90;;;;;;5006884;28;20037;-79
2024/01/11 00:40:53;;;;;;;1999.90;999.90;;;-5.20;99.90;;;;;;4987004;28;20268;-79
2024/01/11 00:43:19;;;;;;;1999.90;999.90;;;-5.20;99.90;;;;;;4994058;28;20038;-79
2024/01/11 00:45:45;;;;;;;1999.90;999.90;;;-5.20;99.90;;;;;;4989530;28;20037;-79
2024/01/11 00:48:12;;;;;;;1999.90;999.90;;;-5.20;99.90;;;;;;4990990;28;20045;-79
2024/01/11 00:50:37;;;;;;;1999.90;999.90;;;-5.30;99.90;;;;;;5008267;28;20491;-79
2024/01/11 00:53:03;;;;;;;1999.90;999.90;;;-5.30;99.90;;;;;;4991808;28;20041;-80
2024/01/11 00:55:29;;;;;;;1999.90;999.90;;;-5.30;99.90;;;;;;5009385;28;20517;-79
2024/01/11 00:57:55;;;;;;;1999.90;999.90;;;-5.30;99.90;;;;;;5009785;28;20125;-79
2024/01/11 01:00:20;;;;;;;1999.90;999.90;;;-5.30;99.90;;;;;;5010392;28;20072;-80
2024/01/11 01:02:46;;;;;;;1999.90;999.90;;;-5.40;99.90;;;;;;4990867;28;20074;-80
2024/01/11 01:05:12;;;;;;;1999.90;999.90;;;-5.40;99.90;;;;;;4992447;28;20045;-79
2024/01/11 01:07:37;;;;;;;1999.90;999.90;;;-5.40;99.90;;;;;;5011112;28;20042;-79
2024/01/11 01:10:03;;;;;;;1999.90;999.90;;;-5.40;99.90;;;;;;4997275;28;20117;-79
2024/01/11 01:12:29;;;;;;;1999.90;999.90;;;-5.40;99.90;;;;;;5017727;28;20472;-80
2024/01/11 01:14:55;;;;;;;1999.90;999.90;;;-5.40;99.90;;;;;;4990936;28;20045;-79
2024/01/11 01:17:22;;;;;;;1999.90;999.90;;;-5.70;99.90;;;;;;4995107;28;20046;-79
2024/01/11 01:19:51;;;;;;;1999.90;999.90;;;-5.40;99.90;;;;;;4992261;28;20042;-79
2024/01/11 01:22:16;;;;;;;1999.90;999.90;;;-5.40;99.90;;;;;;5010569;28;20054;-80
2024/01/11 01:24:42;;;;;;;1999.90;999.90;;;-5.40;99.90;;;;;;5000269;28;20049;-80
2024/01/11 01:27:07;;;;;;;1999.90;999.90;;;-5.40;99.90;;;;;;5008148;28;20105;-80
2024/01/11 01:29:33;;;;;;;1999.90;999.90;;;-5.40;99.90;;;;;;4994427;28;20030;-79
2024/01/11 01:31:58;;;;;;;1999.90;999.90;;;-5.40;99.90;;;;;;4988246;28;20035;-80
2024/01/11 01:34:24;;;;;;;1999.90;999.90;;;-4.00;99.90;;;;;;4984922;28;20038;-80
2024/01/11 01:36:50;;;;;;;1999.90;999.90;;;-5.40;99.90;;;;;;5006822;28;20088;-80
2024/01/11 01:39:15;;;;;;;1999.90;999.90;;;-5.40;99.90;;;;;;4990098;28;20453;-79
2024/01/11 01:41:41;;;;;;;1999.90;999.90;;;-5.50;99.90;;;;;;4986874;28;20098;-80
2024/01/11 01:44:07;;;;;;;1999.90;999.90;;;-5.40;99.90;;;;;;4996280;28;20037;-79
2024/01/11 01:46:34;;;;;;;1999.90;999.90;;;-5.40;99.90;;;;;;4992841;28;20038;-80
2024/01/11 01:49:00;;;;;;;1999.90;999.90;;;-5.50;99.90;;;;;;4991178;28;20572;-80
2024/01/11 01:51:29;;;;;;;1999.90;999.90;;;-3.70;99.90;;;;;;4998090;28;20045;-79
2024/01/11 01:53:56;;;;;;;1999.90;999.90;;;-5.50;99.90;;;;;;4994831;28;20058;-79
2024/01/11 01:56:22;;;;;;;1999.90;999.90;;;-5.50;99.90;;;;;;4992434;28;20099;-79
2024/01/11 01:58:51;;;;;;;1999.90;999.90;;;-5.50;99.90;;;;;;5009300;28;20044;-79
2024/01/11 02:01:18;;;;;;;1999.90;999.90;;;-5.60;99.90;;;;;;4988984;28;20042;-79
2024/01/11 02:03:46;;;;;;;1999.90;999.90;;;-5.60;99.90;;;;;;4992690;28;20038;-80
2024/01/11 02:06:13;;;;;;;1999.90;999.90;;;-5.60;99.90;;;;;;4989382;28;20472;-80
2024/01/11 02:08:42;;;;;;;1999.90;999.90;;;-5.70;99.90;;;;;;4990435;28;20045;-80
2024/01/11 02:11:07;;;;;;;1999.90;999.90;;;-5.70;99.90;;;;;;4989436;28;20128;-79
2024/01/11 02:13:34;;;;;;;1999.90;999.90;;;-5.70;99.90;;;;;;5006607;28;20038;-79
2024/01/11 02:15:59;;;;;;;1999.90;999.90;;;-5.70;99.90;;;;;;4988797;28;20038;-79
2024/01/11 02:18:25;;;;;;;1999.90;999.90;;;-5.70;99.90;;;;;;5007787;28;20044;-79
2024/01/11 02:20:51;;;;;;;1999.90;999.90;;;-5.70;99.90;;;;;;4991654;28;20054;-80
2024/01/11 02:23:19;;;;;;;1999.90;999.90;;;-5.70;99.90;;;;;;5009531;28;20042;-81
2024/01/11 02:25:45;;;;;;;1999.90;999.90;;;-5.70;99.90;;;;;;5002276;28;20335;-80
2024/01/11 02:28:11;;;;;;;1999.90;999.90;;;-5.70;99.90;;;;;;4988834;28;20042;-80
2024/01/11 02:30:37;;;;;;;1999.90;999.90;;;-5.80;99.90;;;;;;4990405;28;20106;-79
2024/01/11 02:33:04;;;;;;;1999.90;999.90;;;-5.80;99.90;;;;;;5006292;28;20066;-79
2024/01/11 02:35:30;;;;;;;1999.90;999.90;;;-7.40;99.90;;;;;;4988127;28;20070;-79
2024/01/11 02:37:58;;;;;;;1999.90;999.90;;;-5.00;99.90;;;;;;5003862;28;20045;-79
2024/01/11 02:40:25;;;;;;;1999.90;999.90;;;-5.90;99.90;;;;;;4991171;28;20034;-79
2024/01/11 02:42:51;;;;;;;1999.90;999.90;;;-5.90;99.90;;;;;;4989995;28;20042;-79
2024/01/11 02:45:16;;;;;;;1999.90;999.90;;;-5.90;99.90;;;;;;4986928;28;20065;-79
2024/01/11 02:47:42;;;;;;;1999.90;999.90;;;-5.90;99.90;;;;;;5006097;28;20034;-79
2024/01/11 02:50:08;;;;;;;1999.90;999.90;;;-5.90;99.90;;;;;;5006003;28;20109;-79
2024/01/11 02:52:34;;;;;;;1999.90;999.90;;;-5.90;99.90;;;;;;5010756;28;20034;-79
2024/01/11 02:55:00;;;;;;;1999.90;999.90;;;-5.40;99.90;;;;;;5024452;28;20477;-80
2024/01/11 02:57:25;;;;;;;1999.90;999.90;;;-5.90;99.90;;;;;;4988869;28;20423;-80
2024/01/11 02:59:51;;;;;;;1999.90;999.90;;;-5.90;99.90;;;;;;4988909;28;20093;-80
2024/01/11 03:02:17;;;;;;;1999.90;999.90;;;-5.90;99.90;;;;;;5008092;28;20402;-79
2024/01/11 03:04:43;;;;;;;1999.90;999.90;;;-5.90;99.90;;;;;;4990166;28;20037;-79
2024/01/11 03:07:08;;;;;;;1999.90;999.90;;;-6.00;99.90;;;;;;4988284;28;20133;-80
2024/01/11 03:09:34;;;;;;;1999.90;999.90;;;-6.00;99.90;;;;;;5010814;28;20041;-80
2024/01/11 03:12:00;;;;;;;1999.90;999.90;;;-6.00;99.90;;;;;;4989894;28;20044;-80
2024/01/11 03:14:26;;;;;;;1999.90;999.90;;;-6.00;99.90;;;;;;4994632;28;20038;-80
2024/01/11 03:16:51;;;;;;;1999.90;999.90;;;-6.00;99.90;;;;;;4994600;28;20099;-79
2024/01/11 03:19:17;;;;;;;1999.90;999.90;;;-6.00;99.90;;;;;;5002980;28;20121;-79
2024/01/11 03:21:44;;;;;;;1999.90;999.90;;;-6.00;99.90;;;;;;5001497;28;20137;-80
2024/01/11 03:24:09;;;;;;;1999.90;999.90;;;-6.00;99.90;;;;;;5020140;28;20034;-80
2024/01/11 03:26:35;;;;;;;1999.90;999.90;;;-4.10;99.90;;;;;;5019707;28;20045;-80
2024/01/11 03:29:01;;;;;;;1999.90;999.90;;;-6.10;99.90;;;;;;4991915;28;20061;-80
2024/01/11 03:31:26;;;;;;;1999.90;999.90;;;-6.00;99.90;;;;;;4993670;28;20098;-80
2024/01/11 03:33:52;;;;;;;1999.90;999.90;;;-6.00;99.90;;;;;;5001693;28;20117;-80
2024/01/11 03:36:17;;;;;;;1999.90;999.90;;;-6.00;99.90;;;;;;5009783;28;20038;-81
2024/01/11 03:38:46;;;;;;;1999.90;999.90;;;-6.10;99.90;;;;;;4997408;28;20502;-81
2024/01/11 03:41:12;;;;;;;1999.90;999.90;;;-6.10;99.90;;;;;;5017338;28;20119;-81
2024/01/11 03:43:37;;;;;;;1999.90;999.90;;;-6.10;99.90;;;;;;5000763;28;20042;-80
2024/01/11 03:46:03;;;;;;;1999.90;999.90;;;-6.10;99.90;;;;;;5016678;28;20051;-81
2024/01/11 03:48:30;;;;;;;1999.90;999.90;;;-6.10;99.90;;;;;;5020522;28;20034;-81
2024/01/11 03:50:56;;;;;;;1999.90;999.90;;;-6.10;99.90;;;;;;5001816;28;20042;-81
2024/01/11 03:53:22;;;;;;;1999.90;999.90;;;-5.80;99.90;;;;;;5004404;28;20066;-80
2024/01/11 03:55:47;;;;;;;1999.90;999.90;;;-4.50;99.90;;;;;;5000539;28;20042;-80
2024/01/11 03:58:14;;;;;;;1999.90;999.90;;;-5.00;99.90;;;;;;5017201;28;20052;-80
2024/01/11 04:00:39;;;;;;;1999.90;999.90;;;-6.10;99.90;;;;;;4993789;28;20114;-81
2024/01/11 04:03:06;;;;;;;1999.90;999.90;;;-6.10;99.90;;;;;;5005254;28;20070;-81
2024/01/11 04:05:32;;;;;;;1999.90;999.90;;;-6.10;99.90;;;;;;4996276;28;20030;-81
2024/01/11 04:07:58;;;;;;;1999.90;999.90;;;-6.10;99.90;;;;;;4988473;28;20096;-80
2024/01/11 04:10:23;;;;;;;1999.90;999.90;;;-6.10;99.90;;;;;;4996967;28;20173;-80
2024/01/11 04:12:49;;;;;;;1999.90;999.90;;;-6.10;99.90;;;;;;4986610;28;20061;-80
2024/01/11 04:15:14;;;;;;;1999.90;999.90;;;-6.10;99.90;;;;;;5005254;28;20498;-80
2024/01/11 04:17:40;;;;;;;1999.90;999.90;;;-7.30;99.90;;;;;;5005246;28;20475;-80
2024/01/11 04:20:08;;;;;;;1999.90;999.90;;;-6.10;99.90;;;;;;4987872;28;20078;-80
2024/01/11 04:22:34;;;;;;;1999.90;999.90;;;-6.10;99.90;;;;;;4990248;28;20053;-80
2024/01/11 04:25:00;;;;;;;1999.90;999.90;;;-6.60;99.90;;;;;;4990963;28;20052;-80
2024/01/11 04:27:26;;;;;;;1999.90;999.90;;;-6.10;99.90;;;;;;4998787;28;20062;-80
2024/01/11 04:29:51;;;;;;;1999.90;999.90;;;-6.10;99.90;;;;;;4998272;28;20087;-80
2024/01/11 04:32:17;;;;;;;1999.90;999.90;;;-6.10;99.90;;;;;;4987884;28;20116;-80
2024/01/11 04:34:43;;;;;;;1999.90;999.90;;;-6.10;99.90;;;;;;5002855;28;20038;-80
2024/01/11 04:37:09;;;;;;;1999.90;999.90;;;-6.10;99.90;;;;;;4992027;28;20038;-80
2024/01/11 04:39:35;;;;;;;1999.90;999.90;;;-6.00;99.90;;;;;;4993271;28;20041;-80
2024/01/11 04:42:00;;;;;;;1999.90;999.90;;;-5.90;99.90;;;;;;5003734;28;20030;-80
2024/01/11 04:44:26;;;;;;;1999.90;999.90;;;-6.40;99.90;;;;;;5010025;28;20094;-80
2024/01/11 04:46:55;;;;;;;1999.90;999.90;;;-5.70;99.90;;;;;;5013908;28;20070;-80
2024/01/11 04:49:21;;;;;;;1999.90;999.90;;;-4.00;99.90;;;;;;4997183;28;20196;-81
2024/01/11 04:51:46;;;;;;;1999.90;999.90;;;-5.50;99.90;;;;;;5013168;28;20069;-81
2024/01/11 04:54:12;;;;;;;1999.90;999.90;;;-5.50;99.90;;;;;;4987421;28;20036;-81
2024/01/11 04:56:37;;;;;;;1999.90;999.90;;;-5.30;99.90;;;;;;5006448;28;20046;-80
2024/01/11 04:59:03;;;;;;;1999.90;999.90;;;-5.20;99.90;;;;;;4987564;28;20089;-80
2024/01/11 05:01:29;;;;;;;1999.90;999.90;;;-5.10;99.90;;;;;;4988767;28;20121;-80
2024/01/11 05:03:54;;;;;;;1999.90;999.90;;;-3.30;99.90;;;;;;4994711;28;20038;-80
2024/01/11 05:06:22;;;;;;;1999.90;999.90;;;-4.90;99.90;;;;;;5009225;28;20049;-81
2024/01/11 05:08:49;;;;;;;1999.90;999.90;;;-4.80;99.90;;;;;;5011924;28;20034;-80
2024/01/11 05:11:19;;;;;;;1999.90;999.90;;;-4.70;99.90;;;;;;4997258;28;20506;-81
2024/01/11 05:13:47;;;;;;;1999.90;999.90;;;-4.60;99.90;;;;;;5019144;28;20145;-80
2024/01/11 05:16:29;;;;;;;1999.90;999.90;;;-4.60;99.90;;;;;;5018247;28;20394;-81
2024/01/11 05:18:56;;;;;;;1999.90;999.90;;;-3.70;99.90;;;;;;5007033;28;20056;-80
2024/01/11 05:21:23;;;;;;;1999.90;999.90;;;-4.40;99.90;;;;;;5010543;28;20061;-81
2024/01/11 05:23:49;;;;;;;1999.90;999.90;;;-4.40;99.90;;;;;;4997986;28;20117;-81
2024/01/11 05:26:16;;;;;;;1999.90;999.90;;;-4.30;99.90;;;;;;5015121;28;20066;-81
2024/01/11 05:28:41;;;;;;;1999.90;999.90;;;-4.30;99.90;;;;;;4997812;28;20041;-82
2024/01/11 05:31:14;;;;;;;1999.90;999.90;;;-4.20;99.90;;;;;;4994180;28;20125;-83
2024/01/11 05:33:41;;;;;;;1999.90;999.90;;;-4.10;99.90;;;;;;5007015;28;20038;-83
2024/01/11 05:36:07;;;;;;;1999.90;999.90;;;-4.10;99.90;;;;;;5010670;28;20057;-83
2024/01/11 05:38:34;;;;;;;1999.90;999.90;;;-4.00;99.90;;;;;;4992879;28;20068;-83
2024/01/11 05:41:02;;;;;;;1999.90;999.90;;;-3.90;99.90;;;;;;4991376;28;20034;-83
2024/01/11 05:43:28;;;;;;;1999.90;999.90;;;-3.90;99.90;;;;;;5006235;28;20057;-84
2024/01/11 05:45:54;;;;;;;1999.90;999.90;;;-3.80;99.90;;;;;;4996030;28;20066;-84
2024/01/11 05:48:21;;;;;;;1999.90;999.90;;;-3.80;99.90;;;;;;5013308;28;20087;-85
2024/01/11 05:50:47;;;;;;;1999.90;999.90;;;-3.70;99.90;;;;;;4990326;28;20137;-84
2024/01/11 05:53:13;;;;;;;1999.90;999.90;;;-2.30;99.90;;;;;;4991965;28;20169;-83
2024/01/11 05:55:41;;;;;;;1999.90;999.90;;;-3.60;99.90;;;;;;4995971;28;20034;-83
2024/01/11 05:58:07;;;;;;;1999.90;999.90;;;-3.60;99.90;;;;;;5013167;28;20112;-83
2024/01/11 06:00:33;;;;;;;1999.90;999.90;;;-3.60;99.90;;;;;;5010797;28;20457;-83
2024/01/11 06:02:59;;;;;;;1999.90;999.90;;;-3.50;99.90;;;;;;4993858;28;20049;-82
2024/01/11 06:05:29;;;;;;;1999.90;999.90;;;-3.50;99.90;;;;;;4999379;28;20038;-85
2024/01/11 06:07:54;;;;;;;1999.90;999.90;;;-3.40;99.90;;;;;;5006181;28;20428;-83
2024/01/11 06:10:24;;;;;;;1999.90;999.90;;;-3.40;99.90;;;;;;4998610;28;20043;-84
2024/01/11 06:12:49;;;;;;;1999.90;999.90;;;-3.70;99.90;;;;;;4991250;28;20149;-84
2024/01/11 06:15:15;;;;;;;1999.90;999.90;;;-1.80;99.90;;;;;;4990154;28;20133;-84
2024/01/11 06:17:41;;;;;;;1999.90;999.90;;;-3.30;99.90;;;;;;4990626;28;20445;-83
2024/01/11 06:20:07;;;;;;;1999.90;999.90;;;-3.20;99.90;;;;;;4992180;28;20085;-84
2024/01/11 06:22:32;;;;;;;1999.90;999.90;;;-3.20;99.90;;;;;;4997778;28;20481;-83
2024/01/11 06:25:00;;;;;;;1999.90;999.90;;;-3.20;99.90;;;;;;5016409;28;20029;-83
2024/01/11 06:27:26;;;;;;;1999.90;999.90;;;-3.10;99.90;;;;;;4992115;28;20073;-83
2024/01/11 06:29:53;;;;;;;1999.90;999.90;;;-3.00;99.90;;;;;;4986080;28;20125;-83
2024/01/11 06:32:19;;;;;;;1999.90;999.90;;;-3.10;99.90;;;;;;4991836;28;20037;-84
2024/01/11 06:34:45;;;;;;;1999.90;999.90;;;-1.80;99.90;;;;;;4992106;28;20058;-84
2024/01/11 06:37:12;;;;;;;1999.90;999.90;;;-3.00;99.90;;;;;;4991864;28;20429;-84
2024/01/11 06:39:37;;;;;;;1999.90;999.90;;;-2.90;99.90;;;;;;4992680;28;20042;-84
2024/01/11 06:42:03;;;;;;;1999.90;999.90;;;-2.90;99.90;;;;;;4996220;28;20072;-83
2024/01/11 06:44:30;;;;;;;1999.90;999.90;;;-2.90;99.90;;;;;;4996584;28;20030;-83
2024/01/11 06:46:56;;;;;;;1999.90;999.90;;;-2.90;99.90;;;;;;4998525;28;20058;-83
2024/01/11 06:49:21;;;;;;;1999.90;999.90;;;-2.80;99.90;;;;;;4999163;28;20073;-84
2024/01/11 06:51:47;;;;;;;1999.90;999.90;;;-2.80;99.90;;;;;;4995667;28;20101;-83
2024/01/11 06:54:13;;;;;;;1999.90;999.90;;;-2.40;99.90;;;;;;5016305;28;20066;-83
2024/01/11 06:56:39;;;;;;;1999.90;999.90;;;-2.70;99.90;;;;;;5002788;28;20088;-82
2024/01/11 06:59:04;;;;;;;1999.90;999.90;;;-1.60;99.90;;;;;;4994225;28;20045;-83
2024/01/11 07:01:30;;;;;;;1999.90;999.90;;;-1.10;99.90;;;;;;5013851;28;20050;-82
2024/01/11 07:03:56;;;;;;;1999.90;999.90;;;-1.50;99.90;;;;;;4995806;28;20049;-82
2024/01/11 07:06:22;;;;;;;1999.90;999.90;;;-0.90;99.90;;;;;;4994424;28;20034;-83
2024/01/11 07:08:47;;;;;;;1999.90;999.90;;;-1.70;99.90;;;;;;5010973;28;20066;-83
2024/01/11 07:11:16;;;;;;;1999.90;999.90;;;-1.70;99.90;;;;;;5009160;28;20066;-83
2024/01/11 07:13:42;;;;;;;1999.90;999.90;;;-3.00;99.90;;;;;;5014118;28;20033;-82
2024/01/11 07:16:08;;;;;;;1999.90;999.90;;;-1.60;99.90;;;;;;4997423;28;20046;-82
2024/01/11 07:18:34;;;;;;;1999.90;999.90;;;-1.60;99.90;;;;;;4992460;28;20069;-83
2024/01/11 07:21:00;;;;;;;1999.90;999.90;;;-1.50;99.90;;;;;;4991583;28;20132;-82
2024/01/11 07:23:27;;;;;;;1999.90;999.90;;;-2.40;99.90;;;;;;5012165;28;20113;-82
2024/01/11 07:25:52;;;;;;;1999.90;999.90;;;-0.90;99.90;;;;;;4992008;28;20034;-83
2024/01/11 07:28:19;;;;;;;1999.90;999.90;;;-2.60;99.90;;;;;;4995050;28;20074;-83
2024/01/11 07:30:46;;;;;;;1999.90;999.90;;;-0.90;99.90;;;;;;4996218;28;20092;-83
2024/01/11 07:33:12;;;;;;;1999.90;999.90;;;-0.90;99.90;;;;;;5004081;28;20320;-83
2024/01/11 07:35:37;;;;;;;1999.90;999.90;;;-1.30;99.90;;;;;;4995257;28;20053;-83
2024/01/11 07:38:03;;;;;;;1999.90;999.90;;;-1.00;99.90;;;;;;5010027;28;20042;-83
2024/01/11 07:40:30;;;;;;;1999.90;999.90;;;-1.50;99.90;;;;;;5000245;28;20042;-83
2024/01/11 07:42:58;;;;;;;1999.90;999.90;;;-2.30;99.90;;;;;;5003545;28;20038;-83
2024/01/11 07:45:27;;;;;;;1999.90;999.90;;;-2.20;99.90;;;;;;5019035;28;20038;-84
2024/01/11 07:47:53;;;;;;;1999.90;999.90;;;-2.10;99.90;;;;;;5016138;28;20121;-83
2024/01/11 07:50:18;;;;;;;1999.90;999.90;;;-2.00;99.90;;;;;;4991910;28;20045;-82
2024/01/11 07:52:45;;;;;;;1999.90;999.90;;;-0.60;99.90;;;;;;5011913;28;20034;-83
2024/01/11 07:55:12;;;;;;;1999.90;999.90;;;-0.80;99.90;;;;;;5004294;28;20058;-83
2024/01/11 07:57:38;;;;;;;1999.90;999.90;;;-1.00;99.90;;;;;;5002233;28;20096;-83
2024/01/11 08:00:07;;;;;;;1999.90;999.90;;;-1.10;99.90;;;;;;5019593;28;20041;-83
2024/01/11 08:02:34;;;;;;;1999.90;999.90;;;-2.00;99.90;;;;;;4991678;28;20038;-82
2024/01/11 08:04:59;;;;;;;1999.90;999.90;;;-1.40;99.90;;;;;;4995099;28;20495;-82
2024/01/11 08:07:26;;;;;;;1999.90;999.90;;;-0.70;99.90;;;;;;4993642;28;20044;-82
2024/01/11 08:09:52;;;;;;;1999.90;999.90;;;-2.40;99.90;;;;;;4990008;28;20101;-82
2024/01/11 08:12:19;;;;;;;1999.90;999.90;;;-0.80;99.90;;;;;;4996833;28;20041;-82
2024/01/11 08:14:46;;;;;;;1999.90;999.90;;;-1.70;99.90;;;;;;4993531;28;20034;-82
2024/01/11 08:17:13;;;;;;;1999.90;999.90;;;-2.10;99.90;;;;;;5010370;28;20057;-84
2024/01/11 08:19:39;;;;;;;1999.90;999.90;;;-0.30;99.90;;;;;;4996228;28;20045;-83
2024/01/11 08:22:05;;;;;;;1999.90;999.90;;;-2.20;99.90;;;;;;4997720;28;20085;-82
2024/01/11 08:24:31;;;;;;;1999.90;999.90;;;-2.20;99.90;;;;;;5005456;28;20088;-82
2024/01/11 08:26:58;;;;;;;1999.90;999.90;;;-1.80;99.90;;;;;;4993213;28;20121;-83
2024/01/11 08:29:24;;;;;;;1999.90;999.90;;;0.10;99.90;;;;;;5010315;28;20050;-83
2024/01/11 08:31:50;;;;;;;1999.90;999.90;;;0.00;99.90;;;;;;4995312;28;20178;-83
2024/01/11 08:34:16;;;;;;;1999.90;999.90;;;-0.10;99.90;;;;;;4992169;28;20052;-82
2024/01/11 08:36:42;;;;;;;1999.90;999.90;;;-0.10;99.90;;;;;;4994354;28;20121;-82
2024/01/11 08:39:08;;;;;;;1999.90;999.90;;;-0.60;99.90;;;;;;4994087;28;20111;-83
2024/01/11 08:41:35;;;;;;;1999.90;999.90;;;-1.40;99.90;;;;;;5009034;28;20026;-82
2024/01/11 08:44:02;;;;;;;1999.90;999.90;;;-0.10;99.90;;;;;;5009760;28;20511;-82
2024/01/11 08:46:30;;;;;;;1999.90;999.90;;;-1.30;99.90;;;;;;5005096;28;20085;-83
2024/01/11 08:48:56;;;;;;;1999.90;999.90;;;-1.30;99.90;;;;;;4992281;28;20046;-83
2024/01/11 08:51:22;;;;;;;1999.90;999.90;;;0.10;99.90;;;;;;4999885;28;20049;-82
2024/01/11 08:53:48;;;;;;;1999.90;999.90;;;-0.50;99.90;;;;;;4998018;28;20042;-83
2024/01/11 08:56:16;;;;;;;1999.90;999.90;;;-0.20;99.90;;;;;;5005630;28;20503;-83
2024/01/11 08:58:41;;;;;;;1999.90;999.90;;;-1.20;99.90;;;;;;4997724;28;20039;-83
2024/01/11 09:01:08;;;;;;;1999.90;999.90;;;0.50;99.90;;;;;;4987500;28;20045;-83
2024/01/11 09:03:37;;;;;;;1999.90;999.90;;;-1.00;99.90;;;;;;5017197;28;20448;-83
2024/01/11 09:06:04;;;;;;;1999.90;999.90;;;-1.00;99.90;;;;;;5014090;28;20068;-83
2024/01/11 09:08:29;;;;;;;1999.90;999.90;;;-0.90;99.90;;;;;;4991452;28;20393;-82
2024/01/11 09:10:58;;;;;;;1999.90;999.90;;;-1.00;99.90;;;;;;4994728;28;20117;-82
2024/01/11 09:13:28;;;;;;;1999.90;999.90;;;-0.10;99.90;;;;;;5003668;28;20106;-83
2024/01/11 09:15:54;;;;;;;1999.90;999.90;;;0.10;99.90;;;;;;5006362;28;20046;-82
2024/01/11 09:18:20;;;;;;;1999.90;999.90;;;0.50;99.90;;;;;;4984483;28;20042;-82
2024/01/11 09:20:47;;;;;;;1999.90;999.90;;;0.10;99.90;;;;;;5004714;28;20058;-82
2024/01/11 09:23:13;;;;;;;1999.90;999.90;;;-0.60;99.90;;;;;;5009532;28;20042;-82
2024/01/11 09:25:39;;;;;;;1999.90;999.90;;;-0.60;99.90;;;;;;4992096;28;20039;-82
2024/01/11 09:28:05;;;;;;;1999.90;999.90;;;0.90;99.90;;;;;;4995266;28;20065;-82
2024/01/11 09:30:31;;;;;;;1999.90;999.90;;;-0.50;99.90;;;;;;5007247;28;20042;-82
2024/01/11 09:32:57;;;;;;;1999.90;999.90;;;-0.20;99.90;;;;;;4987395;28;20038;-82
2024/01/11 09:35:23;;;;;;;1999.90;999.90;;;0.40;99.90;;;;;;5008378;28;20126;-83
2024/01/11 09:37:49;;;;;;;1999.90;999.90;;;0.70;99.90;;;;;;4988894;28;20047;-83
2024/01/11 09:40:17;;;;;;;1999.90;999.90;;;1.20;99.90;;;;;;5008800;28;20038;-82
2024/01/11 09:42:43;;;;;;;1999.90;999.90;;;-0.20;99.90;;;;;;5008303;28;20038;-83
2024/01/11 09:45:13;;;;;;;1999.90;999.90;;;1.10;99.90;;;;;;4990092;28;20052;-82
2024/01/11 09:47:39;;;;;;;1999.90;999.90;;;-0.10;99.90;;;;;;5009048;28;20072;-83
2024/01/11 09:50:06;;;;;;;1999.90;999.90;;;0.00;99.90;;;;;;4988661;28;20479;-82
2024/01/11 09:52:33;;;;;;;1999.90;999.90;;;0.00;99.90;;;;;;4998119;28;20038;-83
2024/01/11 09:54:59;;;;;;;1999.90;999.90;;;1.10;99.90;;;;;;5008237;28;20038;-83
2024/01/11 09:57:30;;;;;;;1999.90;999.90;;;1.50;99.90;;;;;;5005102;28;20486;-82
2024/01/11 09:59:57;;;;;;;1999.90;999.90;;;0.20;99.90;;;;;;4996583;28;20413;-82
2024/01/11 10:02:26;;;;;;;1999.90;999.90;;;1.40;99.90;;;;;;4992385;28;20042;-82
2024/01/11 10:04:52;;;;;;;1999.90;999.90;;;-0.50;99.90;;;;;;5011742;28;20038;-82
2024/01/11 10:07:22;;;;;;;1999.90;999.90;;;1.10;99.90;;;;;;5005426;28;20043;-82
2024/01/11 10:09:47;;;;;;;1999.90;999.90;;;0.40;99.90;;;;;;5014990;28;20031;-81
2024/01/11 10:12:14;;;;;;;1999.90;999.90;;;1.00;99.90;;;;;;4995505;28;20115;-82
2024/01/11 10:14:39;;;;;;;1999.90;999.90;;;1.60;99.90;;;;;;4991018;28;20062;-82
2024/01/11 10:17:06;;;;;;;1999.90;999.90;;;0.60;99.90;;;;;;5012215;28;20034;-82
2024/01/11 10:19:32;;;;;;;1999.90;999.90;;;0.60;99.90;;;;;;5011192;28;20038;-82
2024/01/11 10:22:00;;;;;;;1999.90;999.90;;;0.60;99.90;;;;;;5011474;28;20050;-82
2024/01/11 10:24:26;;;;;;;1999.90;999.90;;;0.70;99.90;;;;;;5003264;28;20042;-82
2024/01/11 10:27:03;;;;;;;1999.90;999.90;;;2.10;99.90;;;;;;4995548;28;20072;-81
2024/01/11 10:29:33;;;;;;;1999.90;999.90;;;1.30;99.90;;;;;;5011181;28;20034;-82
2024/01/11 10:31:59;;;;;;;1999.90;999.90;;;2.00;99.90;;;;;;4997808;28;20033;-82
2024/01/11 10:34:25;;;;;;;1999.90;999.90;;;0.80;99.90;;;;;;5001467;28;20029;-82
2024/01/11 10:36:51;;;;;;;1999.90;999.90;;;0.80;99.90;;;;;;4994879;28;20092;-81
2024/01/11 10:39:17;;;;;;;1999.90;999.90;;;-0.20;99.90;;;;;;4995237;28;20054;-82
2024/01/11 10:41:50;;;;;;;1999.90;999.90;;;0.90;99.90;;;;;;4996635;28;20038;-83
2024/01/11 10:44:22;;;;;;;1999.90;999.90;;;0.90;99.90;;;;;;5015253;28;20109;-82
2024/01/11 10:46:50;;;;;;;1999.90;999.90;;;0.90;99.90;;;;;;5011364;28;20050;-81
2024/01/11 10:49:19;;;;;;;1999.90;999.90;;;1.80;99.90;;;;;;5001054;28;20029;-81
2024/01/11 10:51:55;;;;;;;1999.90;999.90;;;1.00;99.90;;;;;;4995716;28;20046;-82
2024/01/11 10:54:22;;;;;;;1999.90;999.90;;;1.20;99.90;;;;;;5001633;28;20109;-83
2024/01/11 10:56:49;;;;;;;1999.90;999.90;;;1.00;99.90;;;;;;5003348;28;20077;-81
2024/01/11 10:59:17;;;;;;;1999.90;999.90;;;0.90;99.90;;;;;;4992802;28;20046;-82
2024/01/11 11:01:45;;;;;;;1999.90;999.90;;;0.90;99.90;;;;;;4990175;28;20038;-82
2024/01/11 11:04:11;;;;;;;1999.90;999.90;;;1.50;99.90;;;;;;5009199;28;20034;-82
2024/01/11 11:06:38;;;;;;;1999.90;999.90;;;2.00;99.90;;;;;;5007976;28;20045;-82
2024/01/11 11:09:05;;;;;;;1999.90;999.90;;;2.10;99.90;;;;;;5006963;28;20410;-81
2024/01/11 11:11:31;;;;;;;1999.90;999.90;;;1.10;99.90;;;;;;4993304;28;20073;-81
2024/01/11 11:14:00;;;;;;;1999.90;999.90;;;1.20;99.90;;;;;;5007472;28;20045;-81
2024/01/11 11:16:26;;;;;;;1999.90;999.90;;;2.20;99.90;;;;;;4988002;28;20042;-82
2024/01/11 11:18:56;;;;;;;1999.90;999.90;;;1.30;99.90;;;;;;5011943;28;20176;-82
2024/01/11 11:21:21;;;;;;;1999.90;999.90;;;1.20;99.90;;;;;;5011836;28;20141;-81
2024/01/11 11:23:48;;;;;;;1999.90;999.90;;;1.20;99.90;;;;;;4995887;28;20112;-81
2024/01/11 11:26:18;;;;;;;1999.90;999.90;;;1.30;99.90;;;;;;4994431;28;20118;-82
2024/01/11 11:28:46;;;;;;;1999.90;999.90;;;1.30;99.90;;;;;;5005693;28;20045;-82
2024/01/11 11:31:12;;;;;;;1999.90;999.90;;;1.30;99.90;;;;;;5006988;28;20046;-81
2024/01/11 11:33:38;;;;;;;1999.90;999.90;;;1.40;99.90;;;;;;4988054;28;20095;-82
2024/01/11 11:36:04;;;;;;;1999.90;999.90;;;1.40;99.90;;;;;;4990896;28;20042;-81
2024/01/11 11:38:31;;;;;;;1999.90;999.90;;;1.40;99.90;;;;;;5006800;28;20042;-82
2024/01/11 11:40:58;;;;;;;1999.90;999.90;;;1.40;99.90;;;;;;5006204;28;20133;-81
2024/01/11 11:43:27;;;;;;;1999.90;999.90;;;1.50;99.90;;;;;;5003579;28;20057;-81
2024/01/11 11:45:53;;;;;;;1999.90;999.90;;;1.50;99.90;;;;;;5003732;28;20073;-81
2024/01/11 11:48:32;;;;;;;1999.90;999.90;;;1.50;99.90;;;;;;5003731;28;20471;-80
2024/01/11 11:51:07;;;;;;;1999.90;999.90;;;1.60;99.90;;;;;;5006477;28;20030;-80
2024/01/11 11:53:37;;;;;;;1999.90;999.90;;;1.60;99.90;;;;;;4988173;28;20077;-80
2024/01/11 11:56:04;;;;;;;1999.90;999.90;;;1.60;99.90;;;;;;5001375;28;20169;-81
2024/01/11 11:58:31;;;;;;;1999.90;999.90;;;1.60;99.90;;;;;;4988163;28;20597;-80